Time;durP1;ratioP1;P1;durP2;ratioP2;P2;SDS_P1;SDS_P2;PMS_P1;PMS_P2;Temp;Humidity;BMP_temperature;BMP_pressure;BME280_temperature;BME280_humidity;BME280_pressure;Samples;Min_cycle;Max_cycle;Signal;HPM_P1;HPM_P2
2023/05/07 00:00:37;;;;;;;10.32;5.32;;;11.30;99.90;;;;;;5094430;28;20433;-70
2023/05/07 00:03:03;;;;;;;10.38;4.72;;;11.40;99.90;;;;;;5086037;28;20123;-71
2023/05/07 00:05:29;;;;;;;7.75;4.70;;;11.40;99.90;;;;;;5082175;28;20032;-72
2023/05/07 00:07:55;;;;;;;10.52;4.97;;;11.40;99.90;;;;;;5077462;28;20080;-71
2023/05/07 00:10:20;;;;;;;8.77;4.93;;;11.40;99.90;;;;;;5084356;28;20452;-71
2023/05/07 00:12:46;;;;;;;12.15;5.05;;;11.30;99.90;;;;;;5085567;28;20373;-71
2023/05/07 00:15:12;;;;;;;11.35;4.97;;;11.20;99.90;;;;;;5103798;28;20513;-71
2023/05/07 00:17:37;;;;;;;11.07;5.03;;;11.20;99.90;;;;;;5098203;28;20027;-71
2023/05/07 00:20:04;;;;;;;12.98;5.80;;;11.20;99.90;;;;;;5104891;28;20764;-71
2023/05/07 00:22:32;;;;;;;10.57;5.13;;;11.20;99.90;;;;;;5090743;28;20384;-73
2023/05/07 00:24:58;;;;;;;11.52;5.03;;;11.10;99.90;;;;;;5102139;28;20165;-71
2023/05/07 00:27:24;;;;;;;11.18;5.43;;;11.10;99.90;;;;;;5098817;28;20038;-71
2023/05/07 00:29:50;;;;;;;8.13;4.85;;;11.00;99.90;;;;;;5103628;28;20028;-71
2023/05/07 00:32:16;;;;;;;10.50;5.03;;;11.00;99.90;;;;;;5099266;28;20020;-71
2023/05/07 00:34:42;;;;;;;12.30;5.07;;;10.90;99.90;;;;;;5088835;28;20474;-71
2023/05/07 00:37:08;;;;;;;8.90;5.07;;;10.90;99.90;;;;;;5097404;28;20023;-70
2023/05/07 00:39:34;;;;;;;11.35;5.13;;;10.90;99.90;;;;;;5095235;28;20024;-72
2023/05/07 00:42:00;;;;;;;8.98;5.22;;;10.90;99.90;;;;;;5094661;28;20032;-71
2023/05/07 00:44:26;;;;;;;10.15;4.80;;;11.00;99.90;;;;;;5104058;28;20388;-72
2023/05/07 00:46:53;;;;;;;13.02;5.00;;;10.90;99.90;;;;;;5101676;28;20138;-70
2023/05/07 00:49:20;;;;;;;9.63;4.85;;;10.90;99.90;;;;;;5094231;28;20032;-69
2023/05/07 00:51:46;;;;;;;9.32;5.10;;;10.80;99.90;;;;;;5106883;28;20042;-70
2023/05/07 00:54:13;;;;;;;10.82;5.03;;;10.80;99.90;;;;;;5096391;28;20463;-70
2023/05/07 00:56:39;;;;;;;12.65;5.05;;;10.70;99.90;;;;;;5095307;28;20040;-70
2023/05/07 00:59:06;;;;;;;11.65;5.07;;;10.70;99.90;;;;;;5101085;28;20464;-71
2023/05/07 01:01:31;;;;;;;12.75;5.25;;;10.70;99.90;;;;;;5085429;28;20455;-72
2023/05/07 01:03:57;;;;;;;8.95;5.13;;;10.70;99.90;;;;;;5100223;28;20055;-70
2023/05/07 01:06:26;;;;;;;15.25;5.75;;;10.80;99.90;;;;;;5103871;28;20101;-69
2023/05/07 01:08:52;;;;;;;11.82;6.15;;;10.80;99.90;;;;;;5095214;28;20105;-70
2023/05/07 01:11:22;;;;;;;10.75;5.53;;;10.70;99.90;;;;;;5110416;28;20023;-71
2023/05/07 01:13:48;;;;;;;12.20;6.05;;;10.80;99.90;;;;;;5095958;28;20028;-69
2023/05/07 01:16:14;;;;;;;11.38;5.53;;;10.70;99.90;;;;;;5100459;28;20086;-70
2023/05/07 01:18:40;;;;;;;8.48;5.20;;;10.80;99.90;;;;;;5109129;28;20043;-70
2023/05/07 01:21:07;;;;;;;10.70;5.05;;;10.80;99.90;;;;;;5102016;28;20081;-71
2023/05/07 01:23:35;;;;;;;10.05;5.32;;;10.80;99.90;;;;;;5098009;28;20024;-71
2023/05/07 01:26:01;;;;;;;8.25;5.13;;;10.70;99.90;;;;;;5095413;28;20036;-70
2023/05/07 01:28:26;;;;;;;12.77;5.75;;;10.70;99.90;;;;;;5101500;28;20035;-69
2023/05/07 01:30:59;;;;;;;12.88;5.57;;;10.70;99.90;;;;;;5079553;28;20383;-71
2023/05/07 01:33:27;;;;;;;11.10;5.70;;;10.70;99.90;;;;;;5107028;28;20027;-71
2023/05/07 01:35:54;;;;;;;9.18;5.05;;;10.70;99.90;;;;;;5102742;28;20468;-71
2023/05/07 01:38:22;;;;;;;12.27;5.72;;;10.70;99.90;;;;;;5105007;28;20059;-71
2023/05/07 01:40:48;;;;;;;12.35;5.65;;;10.70;99.90;;;;;;5109979;28;20031;-71
2023/05/07 01:43:14;;;;;;;8.75;5.10;;;10.70;99.90;;;;;;5085426;28;20024;-72
2023/05/07 01:45:40;;;;;;;13.00;5.45;;;10.70;99.90;;;;;;5088342;28;20032;-71
2023/05/07 01:48:10;;;;;;;11.68;5.28;;;10.40;99.90;;;;;;5100416;28;20020;-71
2023/05/07 01:50:36;;;;;;;9.93;5.28;;;10.40;99.90;;;;;;5106967;28;20059;-73
2023/05/07 01:53:02;;;;;;;12.25;5.13;;;10.40;99.90;;;;;;5104376;28;20031;-71
2023/05/07 01:55:28;;;;;;;9.57;5.38;;;10.40;99.90;;;;;;5106580;28;20177;-71
2023/05/07 01:57:53;;;;;;;11.60;5.82;;;10.40;99.90;;;;;;5097991;28;20038;-70
2023/05/07 02:00:19;;;;;;;12.80;5.72;;;10.40;99.90;;;;;;5101249;28;20027;-71
2023/05/07 02:02:45;;;;;;;9.13;5.10;;;10.40;99.90;;;;;;5101605;28;20483;-71
2023/05/07 02:05:10;;;;;;;10.50;5.65;;;10.40;99.90;;;;;;5102943;28;20031;-71
2023/05/07 02:07:36;;;;;;;11.00;4.97;;;10.40;99.90;;;;;;5091412;28;20093;-73
2023/05/07 02:10:02;;;;;;;12.65;5.35;;;10.40;99.90;;;;;;5105197;28;20051;-71
2023/05/07 02:12:28;;;;;;;11.10;4.90;;;10.40;99.90;;;;;;5098726;28;20107;-71
2023/05/07 02:14:54;;;;;;;16.63;5.43;;;10.40;99.90;;;;;;5106611;28;20106;-71
2023/05/07 02:17:19;;;;;;;15.75;4.88;;;10.40;99.90;;;;;;5106679;28;20460;-71
2023/05/07 02:19:45;;;;;;;10.77;5.20;;;10.30;99.90;;;;;;5097624;28;20039;-71
2023/05/07 02:22:11;;;;;;;13.52;4.90;;;10.20;99.90;;;;;;5102269;28;20036;-71
2023/05/07 02:24:36;;;;;;;13.15;5.20;;;10.20;99.90;;;;;;5102571;28;20380;-72
2023/05/07 02:27:03;;;;;;;11.70;5.90;;;10.20;99.90;;;;;;5095094;28;20023;-71
2023/05/07 02:29:29;;;;;;;10.98;5.30;;;10.20;99.90;;;;;;5095723;28;20031;-71
2023/05/07 02:31:55;;;;;;;11.32;5.28;;;10.10;99.90;;;;;;5092832;28;20115;-72
2023/05/07 02:34:21;;;;;;;8.05;5.20;;;10.20;99.90;;;;;;5096063;28;20162;-71
2023/05/07 02:36:46;;;;;;;11.57;5.35;;;10.20;99.90;;;;;;5093115;28;20103;-71
2023/05/07 02:39:13;;;;;;;9.80;5.47;;;10.20;99.90;;;;;;5092833;28;20498;-70
2023/05/07 02:41:39;;;;;;;8.02;5.20;;;10.20;99.90;;;;;;5099680;28;20040;-73
2023/05/07 02:44:05;;;;;;;11.77;4.88;;;10.20;99.90;;;;;;5100006;28;20157;-71
2023/05/07 02:46:30;;;;;;;13.18;5.15;;;10.20;99.90;;;;;;5099644;28;20466;-71
2023/05/07 02:48:56;;;;;;;10.27;4.63;;;10.10;99.90;;;;;;5101919;28;20028;-71
2023/05/07 02:51:22;;;;;;;8.70;4.72;;;10.00;99.90;;;;;;5105097;28;20523;-70
2023/05/07 02:53:48;;;;;;;9.63;5.10;;;10.00;99.90;;;;;;5103476;28;20043;-70
2023/05/07 02:56:14;;;;;;;12.30;4.57;;;10.00;99.90;;;;;;5095739;28;20545;-70
2023/05/07 02:58:40;;;;;;;8.70;4.78;;;9.90;99.90;;;;;;5102308;28;20035;-72
2023/05/07 03:01:06;;;;;;;10.82;4.93;;;9.80;99.90;;;;;;5090895;28;20036;-71
2023/05/07 03:03:32;;;;;;;9.20;4.65;;;9.80;99.90;;;;;;5109036;28;20084;-71
2023/05/07 03:05:57;;;;;;;11.00;4.85;;;9.80;99.90;;;;;;5090279;28;20036;-70
2023/05/07 03:08:24;;;;;;;8.75;4.47;;;9.70;99.90;;;;;;5108977;28;20574;-71
2023/05/07 03:10:49;;;;;;;10.93;5.32;;;9.60;99.90;;;;;;5087926;28;20081;-71
2023/05/07 03:13:15;;;;;;;10.57;5.20;;;9.60;99.90;;;;;;5100638;28;20027;-72
2023/05/07 03:15:41;;;;;;;9.52;5.28;;;9.60;99.90;;;;;;5086570;28;20046;-72
2023/05/07 03:18:06;;;;;;;10.50;5.22;;;9.60;99.90;;;;;;5096456;28;20035;-70
2023/05/07 03:20:32;;;;;;;10.60;5.72;;;9.60;99.90;;;;;;5101799;28;20031;-70
2023/05/07 03:22:58;;;;;;;11.35;4.68;;;9.50;99.90;;;;;;5100987;28;20062;-69
2023/05/07 03:25:23;;;;;;;12.07;5.18;;;9.60;99.90;;;;;;5100298;28;20143;-71
2023/05/07 03:27:49;;;;;;;9.13;5.15;;;9.60;99.90;;;;;;5089527;28;20495;-69
2023/05/07 03:30:15;;;;;;;13.30;5.57;;;9.60;99.90;;;;;;5075714;28;20055;-71
2023/05/07 03:32:40;;;;;;;8.73;5.28;;;9.60;99.90;;;;;;5089303;28;20028;-72
2023/05/07 03:35:07;;;;;;;8.30;5.05;;;9.60;99.90;;;;;;5098162;28;20119;-72
2023/05/07 03:37:32;;;;;;;11.13;5.13;;;9.60;99.90;;;;;;5082031;28;20052;-71
2023/05/07 03:39:58;;;;;;;10.25;4.55;;;9.70;99.90;;;;;;5086469;28;20074;-71
2023/05/07 03:42:25;;;;;;;7.60;4.80;;;9.60;99.90;;;;;;5078441;28;20029;-72
2023/05/07 03:44:50;;;;;;;15.90;4.70;;;9.60;99.90;;;;;;5090007;28;20415;-70
2023/05/07 03:47:16;;;;;;;10.90;5.20;;;9.60;99.90;;;;;;5086355;28;20036;-70
2023/05/07 03:49:42;;;;;;;8.80;5.03;;;9.50;99.90;;;;;;5080216;28;20036;-72
2023/05/07 03:52:07;;;;;;;14.90;6.13;;;9.60;99.90;;;;;;5086317;28;20028;-70
2023/05/07 03:54:33;;;;;;;14.07;6.38;;;9.50;99.90;;;;;;5088728;28;20160;-70
2023/05/07 03:56:59;;;;;;;15.45;6.32;;;9.60;99.90;;;;;;5082800;28;20028;-72
2023/05/07 03:59:24;;;;;;;21.50;7.18;;;9.60;99.90;;;;;;5085613;28;20035;-70
2023/05/07 04:01:50;;;;;;;13.55;6.93;;;9.60;99.90;;;;;;5085940;28;20093;-71
2023/05/07 04:04:16;;;;;;;12.88;6.20;;;9.60;99.90;;;;;;5076585;28;20084;-72
2023/05/07 04:06:41;;;;;;;15.77;6.45;;;9.60;99.90;;;;;;5088393;28;20056;-71
2023/05/07 04:09:07;;;;;;;11.50;6.68;;;9.50;99.90;;;;;;5084159;28;20028;-73
2023/05/07 04:11:33;;;;;;;14.27;6.75;;;9.50;99.90;;;;;;5087253;28;20024;-71
2023/05/07 04:13:59;;;;;;;12.35;5.55;;;9.40;99.90;;;;;;5090837;28;20107;-72
2023/05/07 04:16:25;;;;;;;14.45;5.55;;;9.30;99.90;;;;;;5087465;28;20521;-71
2023/05/07 04:18:50;;;;;;;10.63;5.72;;;9.30;99.90;;;;;;5083271;28;20082;-71
2023/05/07 04:21:20;;;;;;;10.77;5.00;;;9.30;99.90;;;;;;5087032;28;20043;-71
2023/05/07 04:23:47;;;;;;;12.30;5.72;;;9.30;99.90;;;;;;5089585;28;20063;-73
2023/05/07 04:26:13;;;;;;;7.82;5.28;;;9.40;99.90;;;;;;5087164;28;20032;-72
2023/05/07 04:28:40;;;;;;;12.90;5.70;;;9.40;99.90;;;;;;5088001;28;20098;-72
2023/05/07 04:31:06;;;;;;;9.93;5.60;;;9.50;99.90;;;;;;5097247;28;20586;-71
2023/05/07 04:33:32;;;;;;;11.65;5.55;;;9.50;99.90;;;;;;5092413;28;20034;-70
2023/05/07 04:36:02;;;;;;;14.85;5.50;;;9.60;99.90;;;;;;5089142;28;20040;-72
2023/05/07 04:38:29;;;;;;;9.35;5.35;;;9.60;99.90;;;;;;5086212;28;20025;-70
2023/05/07 04:40:56;;;;;;;10.23;4.82;;;9.70;99.90;;;;;;5090439;28;20533;-70
2023/05/07 04:43:21;;;;;;;11.18;4.85;;;9.80;99.90;;;;;;5091893;28;20032;-70
2023/05/07 04:45:49;;;;;;;8.32;5.10;;;9.70;99.90;;;;;;5092287;28;20032;-74
2023/05/07 04:48:15;;;;;;;13.63;5.53;;;9.80;99.90;;;;;;5080355;28;20020;-71
2023/05/07 04:50:41;;;;;;;12.20;4.95;;;9.80;99.90;;;;;;5096557;28;20386;-70
2023/05/07 04:53:07;;;;;;;10.50;5.30;;;9.90;99.90;;;;;;5075757;28;20090;-70
2023/05/07 04:55:32;;;;;;;9.43;4.85;;;10.00;99.90;;;;;;5096655;28;20047;-73
2023/05/07 04:58:00;;;;;;;12.63;5.25;;;10.00;99.90;;;;;;5089601;28;20031;-72
2023/05/07 05:00:26;;;;;;;9.65;5.40;;;10.10;99.90;;;;;;5087354;28;20059;-70
2023/05/07 05:02:51;;;;;;;10.88;5.20;;;10.20;99.90;;;;;;5085454;28;20476;-72
2023/05/07 05:05:17;;;;;;;12.73;5.60;;;10.40;99.90;;;;;;5090534;28;20038;-70
2023/05/07 05:07:43;;;;;;;9.18;5.15;;;10.50;99.90;;;;;;5090757;28;20032;-70
2023/05/07 05:10:08;;;;;;;10.63;4.60;;;10.50;99.90;;;;;;5093983;28;20055;-69
2023/05/07 05:12:34;;;;;;;7.97;4.80;;;10.60;99.90;;;;;;5094973;28;20262;-69
2023/05/07 05:15:00;;;;;;;10.70;5.20;;;10.70;99.90;;;;;;5089322;28;20040;-71
2023/05/07 05:17:25;;;;;;;11.40;5.00;;;10.70;99.90;;;;;;5087948;28;20046;-71
2023/05/07 05:19:51;;;;;;;10.65;5.30;;;10.60;99.90;;;;;;5087377;28;20089;-72
2023/05/07 05:22:16;;;;;;;8.60;5.13;;;10.60;99.90;;;;;;5086137;28;20065;-69
2023/05/07 05:24:42;;;;;;;10.52;5.10;;;10.70;99.90;;;;;;5090321;28;20068;-71
2023/05/07 05:27:08;;;;;;;8.68;4.70;;;10.70;99.90;;;;;;5091298;28;20432;-69
2023/05/07 05:29:33;;;;;;;10.57;5.20;;;10.70;99.90;;;;;;5086672;28;20067;-69
2023/05/07 05:31:59;;;;;;;11.02;5.10;;;10.80;99.90;;;;;;5089201;28;20403;-70
2023/05/07 05:34:24;;;;;;;8.68;5.05;;;10.90;99.90;;;;;;5084309;28;20461;-70
2023/05/07 05:36:50;;;;;;;11.07;5.70;;;11.10;99.90;;;;;;5087060;28;20457;-71
2023/05/07 05:39:16;;;;;;;7.95;5.68;;;11.20;99.90;;;;;;5088867;28;20052;-71
2023/05/07 05:41:42;;;;;;;9.05;5.13;;;11.20;99.90;;;;;;5090386;28;20062;-71
2023/05/07 05:44:08;;;;;;;9.07;5.20;;;11.30;99.90;;;;;;5089354;28;20060;-71
2023/05/07 05:46:33;;;;;;;8.95;5.07;;;11.40;99.90;;;;;;5088431;28;20060;-70
2023/05/07 05:48:59;;;;;;;8.40;4.90;;;11.50;99.90;;;;;;5089518;28;20402;-70
2023/05/07 05:51:24;;;;;;;6.70;4.57;;;11.50;99.90;;;;;;5110435;28;20088;-70
2023/05/07 05:53:50;;;;;;;15.98;5.32;;;11.60;99.90;;;;;;5100511;28;20065;-71
2023/05/07 05:56:16;;;;;;;10.75;5.00;;;11.60;99.90;;;;;;5077580;28;20044;-71
2023/05/07 05:58:42;;;;;;;12.90;5.53;;;11.60;99.90;;;;;;5089127;28;20030;-70
2023/05/07 06:01:08;;;;;;;7.38;5.05;;;11.60;99.90;;;;;;5094480;28;20538;-70
2023/05/07 06:03:34;;;;;;;7.72;5.07;;;11.60;99.90;;;;;;5087949;28;20971;-71
2023/05/07 06:06:00;;;;;;;11.13;5.80;;;11.50;99.90;;;;;;5086997;28;20031;-70
2023/05/07 06:08:28;;;;;;;9.32;5.22;;;11.60;99.90;;;;;;5095799;28;20163;-71
2023/05/07 06:10:54;;;;;;;8.30;5.60;;;11.70;99.90;;;;;;5094619;28;20105;-71
2023/05/07 06:13:19;;;;;;;10.18;6.00;;;11.80;99.90;;;;;;5094296;28;20039;-72
2023/05/07 06:15:45;;;;;;;9.02;5.28;;;12.20;99.90;;;;;;5081221;28;20031;-71
2023/05/07 06:18:11;;;;;;;12.95;6.47;;;12.60;99.90;;;;;;5084209;28;20099;-72
2023/05/07 06:20:36;;;;;;;10.93;6.60;;;13.10;99.90;;;;;;5091286;28;20024;-72
2023/05/07 06:23:02;;;;;;;7.82;5.22;;;13.40;99.90;;;;;;5101232;28;20183;-69
2023/05/07 06:25:27;;;;;;;9.73;5.85;;;13.70;99.90;;;;;;5097719;28;20475;-68
2023/05/07 06:27:53;;;;;;;10.32;6.20;;;13.90;99.90;;;;;;5085255;28;20024;-72
2023/05/07 06:30:19;;;;;;;11.00;5.75;;;13.90;99.90;;;;;;5108036;28;20552;-72
2023/05/07 06:32:44;;;;;;;10.27;5.50;;;14.20;99.90;;;;;;5106328;28;20466;-72
2023/05/07 06:35:10;;;;;;;7.13;4.80;;;14.30;99.90;;;;;;5090007;28;20131;-73
2023/05/07 06:37:38;;;;;;;12.68;5.57;;;14.50;99.90;;;;;;5086517;28;20103;-72
2023/05/07 06:40:05;;;;;;;10.70;4.97;;;14.80;99.90;;;;;;5104210;28;20026;-68
2023/05/07 06:42:30;;;;;;;8.52;5.28;;;15.10;99.90;;;;;;5100778;28;20059;-76
2023/05/07 06:44:56;;;;;;;7.35;5.30;;;15.30;99.90;;;;;;5104878;28;20059;-70
2023/05/07 06:47:22;;;;;;;7.75;4.65;;;15.60;99.90;;;;;;5075453;28;20404;-70
2023/05/07 06:49:47;;;;;;;6.63;4.35;;;15.90;99.90;;;;;;5098819;28;20035;-68
2023/05/07 06:52:13;;;;;;;6.80;4.38;;;16.30;99.90;;;;;;5091139;28;20031;-68
2023/05/07 06:54:38;;;;;;;10.43;4.55;;;16.60;99.90;;;;;;5088830;28;20740;-68
2023/05/07 06:57:04;;;;;;;8.10;4.57;;;16.70;99.90;;;;;;5087720;28;20063;-69
2023/05/07 06:59:29;;;;;;;6.68;4.50;;;16.90;99.90;;;;;;5066790;28;20032;-69
2023/05/07 07:01:55;;;;;;;8.55;4.68;;;17.00;99.90;;;;;;5082904;28;20036;-70
2023/05/07 07:04:22;;;;;;;5.75;4.07;;;17.20;99.90;;;;;;5044576;28;20128;-69
2023/05/07 07:06:48;;;;;;;8.85;4.00;;;17.40;99.90;;;;;;5044741;28;20037;-68
2023/05/07 07:09:14;;;;;;;8.55;4.07;;;17.50;99.90;;;;;;5048716;28;20055;-69
2023/05/07 07:11:39;;;;;;;7.47;3.90;;;17.70;99.90;;;;;;5043775;28;20069;-72
2023/05/07 07:14:05;;;;;;;6.18;3.78;;;17.90;99.90;;;;;;5044344;28;20042;-69
2023/05/07 07:16:31;;;;;;;7.18;3.65;;;18.00;99.90;;;;;;5056211;28;20074;-72
2023/05/07 07:18:56;;;;;;;8.05;3.67;;;18.20;99.90;;;;;;5053700;28;20037;-72
2023/05/07 07:21:22;;;;;;;6.07;3.63;;;18.20;99.90;;;;;;5053543;28;20571;-70
2023/05/07 07:23:48;;;;;;;6.35;3.47;;;18.30;99.90;;;;;;5059135;28;20504;-66
2023/05/07 07:26:14;;;;;;;5.82;3.70;;;18.40;99.90;;;;;;5043677;28;20116;-66
2023/05/07 07:28:43;;;;;;;6.80;3.80;;;18.50;99.90;;;;;;5043576;28;20037;-66
2023/05/07 07:31:09;;;;;;;6.47;3.33;;;18.70;99.90;;;;;;5049668;28;20051;-65
2023/05/07 07:33:35;;;;;;;7.63;4.28;;;18.90;99.90;;;;;;5051559;28;20108;-67
2023/05/07 07:36:01;;;;;;;4.70;2.88;;;19.10;99.90;;;;;;5077569;28;20044;-67
2023/05/07 07:38:26;;;;;;;5.10;2.60;;;19.20;99.90;;;;;;5086631;28;20063;-67
2023/05/07 07:40:52;;;;;;;5.85;3.08;;;19.30;99.90;;;;;;5084988;28;20055;-67
2023/05/07 07:43:17;;;;;;;3.15;2.70;;;19.30;99.90;;;;;;5072920;28;20127;-66
2023/05/07 07:45:43;;;;;;;5.78;2.45;;;19.40;99.90;;;;;;5091365;28;20032;-67
2023/05/07 07:48:09;;;;;;;6.20;2.10;;;19.60;99.90;;;;;;5085130;28;20025;-67
2023/05/07 07:50:35;;;;;;;3.28;2.45;;;19.80;99.90;;;;;;5088249;28;20464;-67
2023/05/07 07:53:00;;;;;;;3.70;2.40;;;19.90;99.90;;;;;;5089955;28;20036;-67
2023/05/07 07:55:27;;;;;;;3.92;2.60;;;20.10;99.90;;;;;;5084605;28;20446;-66
2023/05/07 07:57:52;;;;;;;4.88;2.20;;;20.00;99.90;;;;;;5086867;28;20032;-66
2023/05/07 08:00:18;;;;;;;4.32;2.33;;;20.10;99.90;;;;;;5087466;28;20077;-66
2023/05/07 08:02:44;;;;;;;4.70;2.40;;;20.20;99.90;;;;;;5083719;28;20028;-66
2023/05/07 08:05:09;;;;;;;2.88;2.00;;;20.10;99.90;;;;;;5084806;28;20463;-66
2023/05/07 08:07:35;;;;;;;4.32;1.90;;;20.20;99.90;;;;;;5085983;28;20411;-66
2023/05/07 08:10:02;;;;;;;3.40;1.90;;;20.10;99.90;;;;;;5078474;28;20040;-66
2023/05/07 08:12:27;;;;;;;6.90;2.50;;;20.10;99.90;;;;;;5083212;28;20469;-65
2023/05/07 08:14:53;;;;;;;5.60;2.20;;;20.10;99.90;;;;;;5090318;28;20036;-66
2023/05/07 08:17:19;;;;;;;3.33;2.20;;;20.10;99.90;;;;;;5083902;28;20013;-67
2023/05/07 08:19:44;;;;;;;5.75;2.05;;;20.30;99.90;;;;;;5086251;28;20044;-64
2023/05/07 08:22:10;;;;;;;4.88;2.00;;;20.70;99.90;;;;;;5084246;28;20043;-68
2023/05/07 08:24:36;;;;;;;6.35;2.05;;;20.80;99.90;;;;;;5084677;28;20475;-64
2023/05/07 08:27:02;;;;;;;4.18;2.30;;;21.00;99.90;;;;;;5089295;28;20035;-67
2023/05/07 08:29:27;;;;;;;3.90;2.10;;;20.90;99.90;;;;;;5084700;28;20329;-64
2023/05/07 08:31:53;;;;;;;4.07;2.13;;;20.80;99.90;;;;;;5086352;28;20036;-64
2023/05/07 08:34:19;;;;;;;4.57;2.40;;;20.80;99.90;;;;;;5086597;28;20035;-65
2023/05/07 08:36:48;;;;;;;2.20;1.95;;;20.80;99.90;;;;;;5085545;28;20365;-65
2023/05/07 08:39:14;;;;;;;5.65;2.50;;;20.90;99.90;;;;;;5089319;28;20032;-65
2023/05/07 08:41:40;;;;;;;2.42;2.00;;;21.00;99.90;;;;;;5087587;28;20036;-66
2023/05/07 08:44:12;;;;;;;7.30;2.40;;;21.20;99.90;;;;;;5091867;28;20084;-65
2023/05/07 08:46:39;;;;;;;3.80;2.60;;;21.30;99.90;;;;;;5079603;28;20032;-65
2023/05/07 08:49:04;;;;;;;4.07;2.42;;;21.10;99.90;;;;;;5086857;28;20035;-65
2023/05/07 08:51:31;;;;;;;5.72;2.42;;;21.30;99.90;;;;;;5087729;28;20380;-66
2023/05/07 08:53:57;;;;;;;4.93;2.35;;;21.60;99.90;;;;;;5093512;28;20036;-65
2023/05/07 08:56:23;;;;;;;4.50;2.47;;;21.70;99.90;;;;;;5086814;28;20515;-65
2023/05/07 08:58:48;;;;;;;8.45;1.98;;;21.60;99.90;;;;;;5087693;28;20060;-65
2023/05/07 09:01:16;;;;;;;3.35;1.90;;;21.50;99.90;;;;;;5086364;28;20055;-68
2023/05/07 09:03:44;;;;;;;4.07;1.88;;;21.60;99.90;;;;;;5087636;28;20040;-66
2023/05/07 09:06:10;;;;;;;4.07;2.20;;;21.50;99.90;;;;;;5087271;28;20537;-65
2023/05/07 09:08:36;;;;;;;4.47;2.53;;;21.60;99.90;;;;;;5087450;28;20032;-64
2023/05/07 09:11:02;;;;;;;4.82;1.85;;;21.70;99.90;;;;;;5087182;28;20024;-69
2023/05/07 09:13:28;;;;;;;3.35;1.90;;;21.80;99.90;;;;;;5092553;28;20027;-64
2023/05/07 09:15:55;;;;;;;2.35;1.80;;;21.90;99.80;;;;;;5091275;28;20136;-65
2023/05/07 09:18:20;;;;;;;2.88;2.10;;;21.90;99.80;;;;;;5088760;28;20644;-65
2023/05/07 09:20:46;;;;;;;3.90;2.05;;;21.80;99.90;;;;;;5090133;28;20028;-65
2023/05/07 09:23:11;;;;;;;3.80;1.70;;;21.70;99.90;;;;;;5095910;28;20028;-66
2023/05/07 09:25:37;;;;;;;5.90;2.10;;;21.80;99.90;;;;;;5090955;28;20036;-65
2023/05/07 09:28:06;;;;;;;3.35;1.58;;;21.70;99.20;;;;;;5090638;28;20024;-67
2023/05/07 09:30:32;;;;;;;4.22;2.75;;;21.60;99.60;;;;;;5090696;28;20027;-67
2023/05/07 09:32:59;;;;;;;5.70;2.13;;;21.60;99.90;;;;;;5090922;28;20527;-64
2023/05/07 09:35:27;;;;;;;3.53;2.10;;;21.60;99.90;;;;;;5089869;28;20412;-65
2023/05/07 09:37:58;;;;;;;3.85;2.10;;;21.60;99.90;;;;;;5087819;28;20546;-66
2023/05/07 09:40:27;;;;;;;2.85;2.05;;;21.80;99.90;;;;;;5090124;28;20031;-65
2023/05/07 09:42:53;;;;;;;2.55;2.05;;;21.80;99.90;;;;;;5093216;28;20042;-64
2023/05/07 09:45:25;;;;;;;4.65;2.13;;;21.80;99.90;;;;;;5095263;28;20125;-66
2023/05/07 09:47:55;;;;;;;5.85;2.28;;;21.70;99.90;;;;;;5090161;28;20066;-66
2023/05/07 09:50:26;;;;;;;2.83;2.33;;;21.60;99.90;;;;;;5089818;28;20070;-64
2023/05/07 09:52:52;;;;;;;3.33;2.17;;;21.70;99.90;;;;;;5090993;28;20036;-65
2023/05/07 09:55:18;;;;;;;5.65;1.90;;;22.00;99.80;;;;;;5088104;28;20047;-64
2023/05/07 09:57:45;;;;;;;3.05;2.00;;;22.20;98.50;;;;;;5090925;28;20078;-66
2023/05/07 10:00:12;;;;;;;2.88;1.85;;;22.30;98.00;;;;;;5088601;28;20667;-65
2023/05/07 10:02:46;;;;;;;5.25;1.90;;;22.50;97.60;;;;;;5090336;28;20032;-66
2023/05/07 10:05:13;;;;;;;3.13;2.20;;;22.90;99.90;;;;;;5088865;28;20024;-65
2023/05/07 10:07:40;;;;;;;2.63;2.03;;;23.40;99.90;;;;;;5090116;28;20109;-66
2023/05/07 10:10:07;;;;;;;4.75;2.30;;;23.70;96.80;;;;;;5089602;28;20107;-68
2023/05/07 10:12:38;;;;;;;7.55;3.00;;;23.90;97.50;;;;;;5089723;28;20028;-64
2023/05/07 10:15:10;;;;;;;5.38;1.90;;;23.80;93.80;;;;;;5081780;28;20040;-69
2023/05/07 10:17:36;;;;;;;2.92;2.20;;;23.70;97.10;;;;;;5085432;28;20480;-66
2023/05/07 10:20:03;;;;;;;6.55;2.00;;;23.70;93.80;;;;;;5087847;28;20103;-65
2023/05/07 10:22:38;;;;;;;2.63;1.73;;;23.60;94.10;;;;;;5087820;28;20074;-65
2023/05/07 10:25:10;;;;;;;2.28;1.60;;;23.60;93.50;;;;;;5097994;28;20048;-68
2023/05/07 10:27:36;;;;;;;5.38;2.03;;;23.30;94.40;;;;;;5095740;28;20047;-65
2023/05/07 10:30:38;;;;;;;3.97;1.90;;;23.30;95.00;;;;;;5097744;28;20039;-65
2023/05/07 10:33:06;;;;;;;3.50;1.58;;;23.40;93.10;;;;;;5076641;28;20028;-66
2023/05/07 10:35:40;;;;;;;4.10;2.10;;;23.10;93.50;;;;;;5097476;28;20035;-65
2023/05/07 10:38:06;;;;;;;3.55;1.92;;;23.00;94.10;;;;;;5094067;28;20030;-68
2023/05/07 10:40:32;;;;;;;2.67;1.92;;;23.10;94.90;;;;;;5098736;28;20032;-65
2023/05/07 10:43:04;;;;;;;3.08;1.80;;;23.10;93.60;;;;;;5089471;28;20023;-66
2023/05/07 10:45:31;;;;;;;5.03;1.98;;;23.20;95.30;;;;;;5097631;28;20035;-66
2023/05/07 10:48:13;;;;;;;3.80;2.50;;;23.50;95.60;;;;;;5099306;28;20038;-65
2023/05/07 10:50:40;;;;;;;2.25;1.88;;;23.90;93.40;;;;;;5089181;28;20085;-66
2023/05/07 10:53:18;;;;;;;3.88;2.25;;;24.00;93.60;;;;;;5078911;28;20043;-69
2023/05/07 10:56:11;;;;;;;3.75;2.20;;;24.20;94.00;;;;;;5075275;28;20044;-66
2023/05/07 10:58:37;;;;;;;7.85;2.28;;;24.10;91.90;;;;;;5088634;28;20506;-66
2023/05/07 11:01:03;;;;;;;5.78;2.30;;;23.70;91.80;;;;;;5085608;28;20038;-65
2023/05/07 11:03:29;;;;;;;3.10;2.05;;;23.60;91.40;;;;;;5089773;28;20027;-65
2023/05/07 11:06:13;;;;;;;3.72;2.28;;;23.70;93.70;;;;;;5084931;28;20036;-64
2023/05/07 11:08:57;;;;;;;2.50;1.88;;;24.10;91.80;;;;;;5082980;28;20085;-65
2023/05/07 11:11:44;;;;;;;3.05;2.00;;;24.10;91.60;;;;;;5083281;28;20024;-64
2023/05/07 11:14:10;;;;;;;2.88;2.08;;;24.00;91.90;;;;;;5082945;28;20036;-69
2023/05/07 11:16:37;;;;;;;4.85;2.33;;;23.90;91.90;;;;;;5089305;28;20415;-68
2023/05/07 11:19:03;;;;;;;2.47;1.83;;;23.90;93.00;;;;;;5082840;28;20028;-64
2023/05/07 11:21:35;;;;;;;3.17;2.22;;;24.10;92.40;;;;;;5084931;28;20047;-65
2023/05/07 11:24:02;;;;;;;3.90;2.65;;;24.10;90.60;;;;;;5078210;28;20426;-66
2023/05/07 11:26:30;;;;;;;4.25;2.35;;;24.00;92.00;;;;;;5093077;28;20518;-64
2023/05/07 11:28:56;;;;;;;3.65;2.20;;;24.20;92.30;;;;;;5087213;28;20110;-65
2023/05/07 11:31:25;;;;;;;2.45;2.20;;;23.80;92.20;;;;;;5082205;28;20081;-66
2023/05/07 11:33:52;;;;;;;6.45;2.20;;;23.70;94.10;;;;;;5081396;28;20016;-65
2023/05/07 11:36:19;;;;;;;5.15;2.63;;;23.90;92.70;;;;;;5065013;28;20546;-66
2023/05/07 11:38:45;;;;;;;4.07;2.05;;;24.00;92.10;;;;;;5086405;28;20028;-66
2023/05/07 11:41:11;;;;;;;4.20;2.38;;;24.20;92.30;;;;;;5080865;28;20495;-69
2023/05/07 11:43:36;;;;;;;4.72;2.55;;;24.40;92.10;;;;;;5075557;28;20486;-64
2023/05/07 11:46:09;;;;;;;3.70;2.50;;;24.00;90.90;;;;;;5093304;28;20171;-65
2023/05/07 11:48:36;;;;;;;3.20;2.15;;;24.20;91.80;;;;;;5086117;28;20032;-65
2023/05/07 11:51:04;;;;;;;5.25;2.58;;;24.20;93.40;;;;;;5084003;28;20016;-67
2023/05/07 11:53:40;;;;;;;4.55;2.22;;;24.30;93.40;;;;;;5084673;28;20036;-66
2023/05/07 11:56:07;;;;;;;3.88;2.35;;;24.70;94.00;;;;;;5101348;28;20116;-65
2023/05/07 11:58:34;;;;;;;4.70;2.70;;;25.10;90.30;;;;;;5100217;28;20104;-65
2023/05/07 12:01:00;;;;;;;4.88;2.65;;;24.90;91.10;;;;;;5094803;28;20028;-65
2023/05/07 12:03:25;;;;;;;3.90;2.25;;;24.80;91.70;;;;;;5088487;28;20028;-65
2023/05/07 12:05:51;;;;;;;6.55;2.45;;;25.00;92.30;;;;;;5095181;28;20035;-65
2023/05/07 12:08:21;;;;;;;6.43;2.28;;;24.80;89.80;;;;;;5080411;28;20032;-65
2023/05/07 12:10:49;;;;;;;3.95;2.22;;;24.60;90.50;;;;;;5101510;28;20028;-63
2023/05/07 12:13:23;;;;;;;5.25;2.20;;;24.60;90.30;;;;;;5090664;28;20058;-64
2023/05/07 12:15:53;;;;;;;5.53;2.10;;;24.60;90.80;;;;;;5085863;28;20480;-65
2023/05/07 12:18:19;;;;;;;3.30;2.17;;;24.50;90.10;;;;;;5082164;28;20107;-64
2023/05/07 12:20:46;;;;;;;4.05;1.90;;;24.40;90.50;;;;;;5089609;28;20101;-67
2023/05/07 12:23:12;;;;;;;4.65;2.10;;;24.40;87.70;;;;;;5085479;28;20100;-70
2023/05/07 12:25:39;;;;;;;3.67;2.78;;;24.40;90.00;;;;;;5079157;28;20043;-65
2023/05/07 12:28:07;;;;;;;2.33;1.90;;;24.60;90.60;;;;;;5085975;28;20031;-66
2023/05/07 12:30:53;;;;;;;4.28;2.17;;;24.70;88.30;;;;;;5084046;28;20016;-65
2023/05/07 12:33:23;;;;;;;3.25;2.20;;;24.50;88.40;;;;;;5084783;28;20043;-65
2023/05/07 12:35:49;;;;;;;6.45;2.03;;;24.00;89.70;;;;;;5088129;28;20040;-66
2023/05/07 12:38:17;;;;;;;2.95;2.28;;;23.80;89.40;;;;;;5086514;28;20040;-71
2023/05/07 12:40:50;;;;;;;3.65;2.13;;;23.50;88.40;;;;;;5085732;28;20028;-64
2023/05/07 12:43:21;;;;;;;4.35;2.28;;;23.40;89.20;;;;;;5084697;28;20106;-66